Time;durP1;ratioP1;P1;durP2;ratioP2;P2;SDS_P1;SDS_P2;PMS_P1;PMS_P2;Temp;Humidity;BMP_temperature;BMP_pressure;BME280_temperature;BME280_humidity;BME280_pressure;Samples;Min_cycle;Max_cycle;Signal;HPM_P1;HPM_P2
2023/03/20 00:02:20;;;;;;;12.63;6.78;;;;;;;;;;5283292;28;20036;-71
2023/03/20 00:04:51;;;;;;;10.95;7.18;;;;;;;;;;5282401;28;20020;-70
2023/03/20 00:07:22;;;;;;;10.18;7.00;;;;;;;;;;5283069;28;20028;-71
2023/03/20 00:09:56;;;;;;;9.70;6.45;;;;;;;;;;5283003;28;20021;-72
2023/03/20 00:12:27;;;;;;;9.20;6.95;;;;;;;;;;5282378;28;20373;-72
2023/03/20 00:14:59;;;;;;;8.57;5.60;;;;;;;;;;5283136;28;20024;-71
2023/03/20 00:17:30;;;;;;;13.57;7.53;;;;;;;;;;5281846;28;20092;-71
2023/03/20 00:20:02;;;;;;;11.98;7.07;;;;;;;;;;5283045;28;20060;-72
2023/03/20 00:22:33;;;;;;;10.95;7.18;;;;;;;;;;5282597;28;20016;-72
2023/03/20 00:25:04;;;;;;;11.32;6.72;;;;;;;;;;5282147;28;20028;-72
2023/03/20 00:27:36;;;;;;;10.35;6.75;;;;;;;;;;5282198;28;20498;-71
2023/03/20 00:30:21;;;;;;;9.85;6.65;;;;;;;;;;5283015;28;20593;-71
2023/03/20 00:32:53;;;;;;;10.90;6.65;;;;;;;;;;5282146;28;20221;-71
2023/03/20 00:35:26;;;;;;;9.27;6.35;;;;;;;;;;5281991;28;20017;-72
2023/03/20 00:37:58;;;;;;;8.68;6.90;;;;;;;;;;5282865;28;20386;-71
2023/03/20 00:40:30;;;;;;;10.30;6.80;;;;;;;;;;5281260;28;20039;-71
2023/03/20 00:43:02;;;;;;;10.48;6.47;;;;;;;;;;5282573;28;20150;-71
2023/03/20 00:45:34;;;;;;;10.07;6.35;;;;;;;;;;5281222;28;20511;-72
2023/03/20 00:48:05;;;;;;;14.27;6.95;;;;;;;;;;5282447;28;20043;-71
2023/03/20 00:50:36;;;;;;;11.82;7.20;;;;;;;;;;5281965;28;20044;-72
2023/03/20 00:53:09;;;;;;;6.30;5.07;;;;;;;;;;5281658;28;20017;-71
2023/03/20 00:55:40;;;;;;;8.50;5.38;;;;;;;;;;5281895;28;20024;-71
2023/03/20 00:58:12;;;;;;;11.02;6.00;;;;;;;;;;5282246;28;20032;-71
2023/03/20 01:00:44;;;;;;;7.70;5.57;;;;;;;;;;5280926;28;20031;-71
2023/03/20 01:03:16;;;;;;;7.95;6.18;;;;;;;;;;5282193;28;20028;-71
2023/03/20 01:05:48;;;;;;;7.20;5.72;;;;;;;;;;5281762;28;20380;-71
2023/03/20 01:08:22;;;;;;;9.25;6.20;;;;;;;;;;5281146;28;20017;-72
2023/03/20 01:10:54;;;;;;;6.68;5.10;;;;;;;;;;5281834;28;20024;-71
2023/03/20 01:13:27;;;;;;;11.32;6.03;;;;;;;;;;5281527;28;20017;-71
2023/03/20 01:15:58;;;;;;;10.18;6.55;;;;;;;;;;5281841;28;20105;-73
2023/03/20 01:18:30;;;;;;;10.43;6.93;;;;;;;;;;5281501;28;20052;-71
2023/03/20 01:21:01;;;;;;;9.85;7.13;;;;;;;;;;5281249;28;20024;-71
2023/03/20 01:23:32;;;;;;;12.85;7.18;;;;;;;;;;5281298;28;20102;-71
2023/03/20 01:26:10;;;;;;;7.93;5.97;;;;;;;;;;5282315;28;20024;-71
2023/03/20 01:28:41;;;;;;;8.50;6.72;;;;;;;;;;5280822;28;20498;-71
2023/03/20 01:31:13;;;;;;;9.45;6.32;;;;;;;;;;5282099;28;20016;-71
2023/03/20 01:33:44;;;;;;;12.35;7.22;;;;;;;;;;5281362;28;20086;-71
2023/03/20 01:36:19;;;;;;;11.43;7.72;;;;;;;;;;5281468;28;20016;-70
2023/03/20 01:38:53;;;;;;;11.60;7.72;;;;;;;;;;5281256;28;20031;-71
2023/03/20 01:41:25;;;;;;;10.27;8.05;;;;;;;;;;5281416;28;20108;-70
2023/03/20 01:43:56;;;;;;;13.25;9.45;;;;;;;;;;5281146;28;20095;-70
2023/03/20 01:46:30;;;;;;;14.15;9.10;;;;;;;;;;5281144;28;20024;-72
2023/03/20 01:49:27;;;;;;;12.60;8.95;;;;;;;;;;5281223;28;20021;-71
2023/03/20 01:51:58;;;;;;;13.32;8.13;;;;;;;;;;5281610;28;20049;-71
2023/03/20 01:54:37;;;;;;;15.58;8.50;;;;;;;;;;5281072;28;20058;-72
2023/03/20 01:57:18;;;;;;;13.82;10.00;;;;;;;;;;5281220;28;20108;-71
2023/03/20 01:59:50;;;;;;;10.68;8.27;;;;;;;;;;5281267;28;20360;-72
2023/03/20 02:02:25;;;;;;;14.35;8.55;;;;;;;;;;5281422;28;20078;-71
2023/03/20 02:04:59;;;;;;;14.63;9.32;;;;;;;;;;5281083;28;20031;-71
2023/03/20 02:07:31;;;;;;;12.27;9.43;;;;;;;;;;5285282;28;20008;-71
2023/03/20 02:10:14;;;;;;;15.02;9.18;;;;;;;;;;5285180;28;20550;-72
2023/03/20 02:12:46;;;;;;;13.20;8.85;;;;;;;;;;5285047;28;20025;-72
2023/03/20 02:15:17;;;;;;;12.95;9.20;;;;;;;;;;5285694;28;20013;-71
2023/03/20 02:17:48;;;;;;;14.27;9.40;;;;;;;;;;5284009;28;20082;-71
2023/03/20 02:20:32;;;;;;;14.45;10.35;;;;;;;;;;5285330;28;20558;-72
2023/03/20 02:23:20;;;;;;;15.55;10.82;;;;;;;;;;5285482;28;20094;-72
2023/03/20 02:26:10;;;;;;;14.75;10.25;;;;;;;;;;5284182;28;20021;-71
2023/03/20 02:28:53;;;;;;;14.20;10.20;;;;;;;;;;5284767;28;20032;-72
2023/03/20 02:31:42;;;;;;;15.57;11.50;;;;;;;;;;5283894;28;20029;-71
2023/03/20 02:34:22;;;;;;;16.63;11.00;;;;;;;;;;5284901;28;20028;-71
2023/03/20 02:36:56;;;;;;;17.85;10.73;;;;;;;;;;5285098;28;20017;-71
2023/03/20 02:39:46;;;;;;;16.50;11.02;;;;;;;;;;5283765;28;20032;-72
2023/03/20 02:42:26;;;;;;;15.82;10.50;;;;;;;;;;5285090;28;20016;-72
2023/03/20 02:45:16;;;;;;;15.02;10.50;;;;;;;;;;5284189;28;20475;-72
2023/03/20 02:47:54;;;;;;;18.02;10.80;;;;;;;;;;5284259;28;20027;-70
2023/03/20 02:50:48;;;;;;;15.00;10.98;;;;;;;;;;5284194;28;20466;-71
2023/03/20 02:53:31;;;;;;;20.63;11.80;;;;;;;;;;5283887;28;20065;-71
2023/03/20 02:56:08;;;;;;;18.38;10.65;;;;;;;;;;5284939;28;20012;-71
2023/03/20 02:58:49;;;;;;;15.13;11.57;;;;;;;;;;5284004;28;20086;-71
2023/03/20 03:01:24;;;;;;;16.15;10.70;;;;;;;;;;5283410;28;20024;-72
2023/03/20 03:04:03;;;;;;;18.25;11.75;;;;;;;;;;5284841;28;20375;-71
2023/03/20 03:06:36;;;;;;;16.27;10.85;;;;;;;;;;5283169;28;20425;-71
2023/03/20 03:09:10;;;;;;;16.30;10.85;;;;;;;;;;5284560;28;20025;-71
2023/03/20 03:11:43;;;;;;;16.73;11.48;;;;;;;;;;5283827;28;20020;-72
2023/03/20 03:14:18;;;;;;;18.70;11.57;;;;;;;;;;5283841;28;20016;-72
2023/03/20 03:16:50;;;;;;;19.20;11.43;;;;;;;;;;5282669;28;20024;-72
2023/03/20 03:19:23;;;;;;;16.55;11.95;;;;;;;;;;5284164;28;20031;-72
2023/03/20 03:21:55;;;;;;;16.23;11.68;;;;;;;;;;5283363;28;20021;-71
2023/03/20 03:24:28;;;;;;;20.17;11.98;;;;;;;;;;5283548;28;20028;-71
2023/03/20 03:27:01;;;;;;;16.50;10.77;;;;;;;;;;5284302;28;20021;-71
2023/03/20 03:29:34;;;;;;;15.50;10.40;;;;;;;;;;5282735;28;20021;-72
2023/03/20 03:32:06;;;;;;;16.42;11.27;;;;;;;;;;5284192;28;20376;-72
2023/03/20 03:34:37;;;;;;;15.32;10.48;;;;;;;;;;5282708;28;20018;-71
2023/03/20 03:37:14;;;;;;;16.42;10.52;;;;;;;;;;5284281;28;20027;-72
2023/03/20 03:39:51;;;;;;;15.80;9.95;;;;;;;;;;5283399;28;20024;-72
2023/03/20 03:42:26;;;;;;;19.88;10.18;;;;;;;;;;5282968;28;20024;-72
2023/03/20 03:44:57;;;;;;;14.60;10.45;;;;;;;;;;5283932;28;20386;-71
2023/03/20 03:47:29;;;;;;;14.30;10.36;;;;;;;;;;5283077;28;20024;-71
2023/03/20 03:50:08;;;;;;;14.00;9.65;;;;;;;;;;5282961;28;20142;-71
2023/03/20 03:52:40;;;;;;;15.02;10.45;;;;;;;;;;5283035;28;20041;-71
2023/03/20 03:55:15;;;;;;;14.63;9.85;;;;;;;;;;5283776;28;20044;-71
2023/03/20 03:57:52;;;;;;;18.13;10.95;;;;;;;;;;5282412;28;20044;-71
2023/03/20 04:00:25;;;;;;;15.18;10.50;;;;;;;;;;5283350;28;20020;-71
2023/03/20 04:02:57;;;;;;;14.65;10.55;;;;;;;;;;5282914;28;20055;-72
2023/03/20 04:05:30;;;;;;;14.30;10.38;;;;;;;;;;5282783;28;20031;-72
2023/03/20 04:08:02;;;;;;;15.93;11.00;;;;;;;;;;5283403;28;20009;-71
2023/03/20 04:10:33;;;;;;;15.55;9.82;;;;;;;;;;5282181;28;20383;-71
2023/03/20 04:13:05;;;;;;;18.05;10.55;;;;;;;;;;5283412;28;20013;-72
2023/03/20 04:15:37;;;;;;;12.43;10.40;;;;;;;;;;5282695;28;20023;-71
2023/03/20 04:18:13;;;;;;;16.70;9.82;;;;;;;;;;5282353;28;20038;-71
2023/03/20 04:20:46;;;;;;;19.15;10.55;;;;;;;;;;5282824;28;20375;-72
2023/03/20 04:23:17;;;;;;;16.00;9.38;;;;;;;;;;5283368;28;20466;-72
2023/03/20 04:25:48;;;;;;;15.07;9.05;;;;;;;;;;5281672;28;20013;-71
2023/03/20 04:28:20;;;;;;;15.95;10.45;;;;;;;;;;5282270;28;20016;-72
2023/03/20 04:30:55;;;;;;;14.00;9.38;;;;;;;;;;5281704;28;20017;-72
2023/03/20 04:33:27;;;;;;;16.92;10.55;;;;;;;;;;5282491;28;20017;-72
2023/03/20 04:35:58;;;;;;;13.05;9.05;;;;;;;;;;5282999;28;20024;-72
2023/03/20 04:38:29;;;;;;;14.30;10.15;;;;;;;;;;5281418;28;20032;-72
2023/03/20 04:41:00;;;;;;;15.48;10.88;;;;;;;;;;5282712;28;20016;-72
2023/03/20 04:43:32;;;;;;;13.48;9.30;;;;;;;;;;5282034;28;20024;-72
2023/03/20 04:46:03;;;;;;;14.95;8.85;;;;;;;;;;5281913;28;20498;-72
2023/03/20 04:48:34;;;;;;;12.90;9.38;;;;;;;;;;5282141;28;20032;-72
2023/03/20 04:51:06;;;;;;;14.82;10.38;;;;;;;;;;5282500;28;20044;-72
2023/03/20 04:53:37;;;;;;;14.85;8.88;;;;;;;;;;5281565;28;20029;-72
2023/03/20 04:56:08;;;;;;;13.95;9.07;;;;;;;;;;5282403;28;20100;-72
2023/03/20 04:58:39;;;;;;;15.43;9.32;;;;;;;;;;5281011;28;20033;-71
2023/03/20 05:01:10;;;;;;;16.45;10.75;;;;;;;;;;5282325;28;20393;-72
2023/03/20 05:03:42;;;;;;;16.35;9.27;;;;;;;;;;5281841;28;20456;-72
2023/03/20 05:06:13;;;;;;;13.15;9.05;;;;;;;;;;5281406;28;20028;-72
2023/03/20 05:08:45;;;;;;;14.52;8.88;;;;;;;;;;5281859;28;20039;-71
2023/03/20 05:11:16;;;;;;;13.63;9.02;;;;;;;;;;5282377;28;20012;-71
2023/03/20 05:13:47;;;;;;;14.85;8.43;;;;;;;;;;5280976;28;20020;-71
2023/03/20 05:16:18;;;;;;;14.20;9.50;;;;;;;;;;5282160;28;20456;-72
2023/03/20 05:18:49;;;;;;;14.20;8.57;;;;;;;;;;5281355;28;20043;-72
2023/03/20 05:21:21;;;;;;;18.24;9.04;;;;;;;;;;5281224;28;20098;-72
2023/03/20 05:23:52;;;;;;;12.32;8.18;;;;;;;;;;5281800;28;20036;-71
2023/03/20 05:26:23;;;;;;;12.63;8.77;;;;;;;;;;5281874;28;20430;-72
2023/03/20 05:28:54;;;;;;;13.68;7.90;;;;;;;;;;5281202;28;20024;-72
2023/03/20 05:31:25;;;;;;;14.95;8.80;;;;;;;;;;5281323;28;20028;-73
2023/03/20 05:33:57;;;;;;;13.38;9.02;;;;;;;;;;5281238;28;20423;-72
2023/03/20 05:36:28;;;;;;;14.02;8.65;;;;;;;;;;5281394;28;20021;-72
2023/03/20 05:38:59;;;;;;;15.02;8.32;;;;;;;;;;5281469;28;20058;-73
2023/03/20 05:41:30;;;;;;;15.70;7.53;;;;;;;;;;5283393;28;20029;-72
2023/03/20 05:44:01;;;;;;;16.02;8.38;;;;;;;;;;5285663;28;20024;-73
2023/03/20 05:46:32;;;;;;;14.38;7.95;;;;;;;;;;5285294;28;20008;-72
2023/03/20 05:49:04;;;;;;;14.90;7.82;;;;;;;;;;5284892;28;20025;-72
2023/03/20 05:51:36;;;;;;;13.95;7.57;;;;;;;;;;5284864;28;20458;-71
2023/03/20 05:54:07;;;;;;;11.35;7.15;;;;;;;;;;5285700;28;20099;-72
2023/03/20 05:56:38;;;;;;;11.95;7.03;;;;;;;;;;5284451;28;20406;-71
2023/03/20 05:59:10;;;;;;;10.73;6.43;;;;;;;;;;5285720;28;20036;-73
2023/03/20 06:01:41;;;;;;;14.07;8.05;;;;;;;;;;5285368;28;20382;-72
2023/03/20 06:04:12;;;;;;;13.55;6.85;;;;;;;;;;5285089;28;20052;-72
2023/03/20 06:06:43;;;;;;;11.02;7.15;;;;;;;;;;5285021;28;20078;-72
2023/03/20 06:09:15;;;;;;;12.70;6.95;;;;;;;;;;5284819;28;20441;-72
2023/03/20 06:11:46;;;;;;;13.20;7.00;;;;;;;;;;5285140;28;20379;-73
2023/03/20 06:14:17;;;;;;;12.43;7.07;;;;;;;;;;5285766;28;20021;-72
2023/03/20 06:16:48;;;;;;;14.25;7.57;;;;;;;;;;5283988;28;20017;-72
2023/03/20 06:19:20;;;;;;;12.25;6.95;;;;;;;;;;5284578;28;20036;-72
2023/03/20 06:21:51;;;;;;;12.52;6.68;;;;;;;;;;5285136;28;20460;-72
2023/03/20 06:24:23;;;;;;;13.85;6.43;;;;;;;;;;5284305;28;20020;-72
2023/03/20 06:26:54;;;;;;;9.88;5.93;;;;;;;;;;5284919;28;20021;-73
2023/03/20 06:29:25;;;;;;;12.13;6.50;;;;;;;;;;5284472;28;20012;-72
2023/03/20 06:31:57;;;;;;;12.00;6.78;;;;;;;;;;5284262;28;20020;-72
2023/03/20 06:34:29;;;;;;;12.90;6.60;;;;;;;;;;5284696;28;20020;-73
2023/03/20 06:37:00;;;;;;;13.23;6.18;;;;;;;;;;5285204;28;20021;-73
2023/03/20 06:39:31;;;;;;;11.57;6.40;;;;;;;;;;5283779;28;20025;-73
2023/03/20 06:42:02;;;;;;;13.60;6.20;;;;;;;;;;5284854;28;20036;-72
2023/03/20 06:44:33;;;;;;;11.52;5.78;;;;;;;;;;5283864;28;20048;-73
2023/03/20 06:47:05;;;;;;;11.77;5.65;;;;;;;;;;5284835;28;20024;-73
2023/03/20 06:49:36;;;;;;;12.27;5.88;;;;;;;;;;5284138;28;20024;-72
2023/03/20 06:52:12;;;;;;;9.32;5.95;;;;;;;;;;5283390;28;20506;-73
2023/03/20 06:54:44;;;;;;;11.98;6.00;;;;;;;;;;5284058;28;20085;-73
2023/03/20 06:57:16;;;;;;;13.40;6.38;;;;;;;;;;5284952;28;20103;-71
2023/03/20 06:59:47;;;;;;;12.93;5.93;;;;;;;;;;5283359;28;20032;-71
2023/03/20 07:02:19;;;;;;;8.98;5.15;;;;;;;;;;5284337;28;20016;-71
2023/03/20 07:04:50;;;;;;;12.38;6.60;;;;;;;;;;5284016;28;20058;-71
2023/03/20 07:07:21;;;;;;;12.95;6.47;;;;;;;;;;5283201;28;20096;-71
2023/03/20 07:09:52;;;;;;;13.10;6.40;;;;;;;;;;5283981;28;20016;-72
2023/03/20 07:12:27;;;;;;;15.55;5.97;;;;;;;;;;5283424;28;20401;-70
2023/03/20 07:14:58;;;;;;;11.60;6.18;;;;;;;;;;5284275;28;20035;-71
2023/03/20 07:17:29;;;;;;;11.40;6.25;;;;;;;;;;5283690;28;20028;-69
2023/03/20 07:20:01;;;;;;;13.18;6.53;;;;;;;;;;5283216;28;20028;-72
2023/03/20 07:22:32;;;;;;;11.85;5.80;;;;;;;;;;5283447;28;20368;-72
2023/03/20 07:25:03;;;;;;;12.18;6.22;;;;;;;;;;5283950;28;20376;-72
2023/03/20 07:27:35;;;;;;;9.43;5.80;;;;;;;;;;5282737;28;20020;-72
2023/03/20 07:30:07;;;;;;;12.07;5.88;;;;;;;;;;5283962;28;20020;-72
2023/03/20 07:32:39;;;;;;;11.05;5.32;;;;;;;;;;5283663;28;20463;-71
2023/03/20 07:35:11;;;;;;;14.13;6.55;;;;;;;;;;5283143;28;20035;-72
2023/03/20 07:37:42;;;;;;;12.38;6.15;;;;;;;;;;5283045;28;20043;-72
2023/03/20 07:40:13;;;;;;;15.35;5.75;;;;;;;;;;5283524;28;20128;-72
2023/03/20 07:42:46;;;;;;;11.57;6.10;;;;;;;;;;5282497;28;20013;-72
2023/03/20 07:45:17;;;;;;;9.73;5.55;;;;;;;;;;5283996;28;20491;-72
2023/03/20 07:47:49;;;;;;;12.70;5.20;;;;;;;;;;5282353;28;20020;-72
2023/03/20 07:50:20;;;;;;;9.90;4.68;;;;;;;;;;5283035;28;20037;-72
2023/03/20 07:52:51;;;;;;;11.63;5.10;;;;;;;;;;5283300;28;20028;-73
2023/03/20 07:55:22;;;;;;;11.57;5.45;;;;;;;;;;5282817;28;20025;-72
2023/03/20 07:57:53;;;;;;;12.90;5.63;;;;;;;;;;5283157;28;20032;-73
2023/03/20 08:00:25;;;;;;;9.98;5.30;;;;;;;;;;5282963;28;20028;-74
2023/03/20 08:02:56;;;;;;;13.75;5.35;;;;;;;;;;5282003;28;20060;-71
2023/03/20 08:05:28;;;;;;;11.98;5.10;;;;;;;;;;5282726;28;20540;-72
2023/03/20 08:08:00;;;;;;;12.65;4.80;;;;;;;;;;5283181;28;20039;-73
2023/03/20 08:10:31;;;;;;;10.93;5.35;;;;;;;;;;5282130;28;20012;-72
2023/03/20 08:13:02;;;;;;;11.85;5.00;;;;;;;;;;5283041;28;20021;-72
2023/03/20 08:15:34;;;;;;;11.18;5.48;;;;;;;;;;5281689;28;20027;-72
2023/03/20 08:18:05;;;;;;;14.48;5.65;;;;;;;;;;5283117;28;20021;-72
2023/03/20 08:20:36;;;;;;;12.93;4.85;;;;;;;;;;5282700;28;20521;-72
2023/03/20 08:23:07;;;;;;;12.77;4.47;;;;;;;;;;5282421;28;20020;-72
2023/03/20 08:25:39;;;;;;;11.23;5.00;;;;;;;;;;5282367;28;20032;-72
2023/03/20 08:28:10;;;;;;;8.38;4.10;;;;;;;;;;5282716;28;20052;-72
2023/03/20 08:30:41;;;;;;;13.02;4.85;;;;;;;;;;5281463;28;20020;-71
2023/03/20 08:33:13;;;;;;;9.57;4.10;;;;;;;;;;5282683;28;20110;-72
2023/03/20 08:35:54;;;;;;;11.50;4.05;;;;;;;;;;5282228;28;20479;-72
2023/03/20 08:38:25;;;;;;;13.75;4.53;;;;;;;;;;5281198;28;20025;-72
2023/03/20 08:40:57;;;;;;;9.73;3.60;;;;;;;;;;5282636;28;20032;-72
2023/03/20 08:43:28;;;;;;;10.82;4.03;;;;;;;;;;5282214;28;20032;-72
2023/03/20 08:46:00;;;;;;;12.40;5.50;;;;;;;;;;5282020;28;20020;-72
2023/03/20 08:48:31;;;;;;;8.57;3.50;;;;;;;;;;5281915;28;20091;-72
2023/03/20 08:51:02;;;;;;;11.43;3.40;;;;;;;;;;5281427;28;20104;-72
2023/03/20 08:53:34;;;;;;;8.93;4.10;;;;;;;;;;5281917;28;20130;-71
2023/03/20 08:56:06;;;;;;;13.75;4.30;;;;;;;;;;5282387;28;20021;-72
2023/03/20 08:58:37;;;;;;;10.20;3.65;;;;;;;;;;5280922;28;20025;-72
2023/03/20 09:01:08;;;;;;;11.20;4.53;;;;;;;;;;5282493;28;20032;-73
2023/03/20 09:03:40;;;;;;;10.57;3.83;;;;;;;;;;5281815;28;20065;-72
2023/03/20 09:06:11;;;;;;;11.88;3.83;;;;;;;;;;5281268;28;20020;-72
2023/03/20 09:08:42;;;;;;;9.98;3.65;;;;;;;;;;5281905;28;20016;-72
2023/03/20 09:11:14;;;;;;;9.15;3.22;;;;;;;;;;5282064;28;20039;-72
2023/03/20 09:13:45;;;;;;;10.60;4.45;;;;;;;;;;5280646;28;20095;-71
2023/03/20 09:16:16;;;;;;;9.95;3.45;;;;;;;;;;5281662;28;20083;-73
2023/03/20 09:18:47;;;;;;;11.85;4.68;;;;;;;;;;5281122;28;20017;-72
2023/03/20 09:21:18;;;;;;;10.70;4.00;;;;;;;;;;5281365;28;20020;-72
2023/03/20 09:23:50;;;;;;;9.35;4.38;;;;;;;;;;5281429;28;20560;-72
2023/03/20 09:26:21;;;;;;;8.05;3.15;;;;;;;;;;5280991;28;20020;-72
2023/03/20 09:28:52;;;;;;;7.60;3.45;;;;;;;;;;5281850;28;20095;-72
2023/03/20 09:31:23;;;;;;;12.15;3.75;;;;;;;;;;5281686;28;20021;-72
2023/03/20 09:33:54;;;;;;;10.38;3.95;;;;;;;;;;5281408;28;20021;-72
2023/03/20 09:36:25;;;;;;;10.15;3.90;;;;;;;;;;5281016;28;20056;-72
2023/03/20 09:38:57;;;;;;;8.68;3.35;;;;;;;;;;5281968;28;20404;-72
2023/03/20 09:41:35;;;;;;;7.28;3.03;;;;;;;;;;5280572;28;20017;-72
2023/03/20 09:44:25;;;;;;;9.07;4.03;;;;;;;;;;5282171;28;20425;-72
2023/03/20 09:47:08;;;;;;;10.00;3.67;;;;;;;;;;5281573;28;20056;-71
2023/03/20 09:49:39;;;;;;;10.70;3.95;;;;;;;;;;5280956;28;20033;-72
2023/03/20 09:52:23;;;;;;;8.88;3.92;;;;;;;;;;5281818;28;20150;-73
2023/03/20 09:54:56;;;;;;;12.20;3.92;;;;;;;;;;5280694;28;20052;-73
2023/03/20 09:57:31;;;;;;;11.68;3.55;;;;;;;;;;5281249;28;20375;-71
2023/03/20 10:00:09;;;;;;;7.90;3.38;;;;;;;;;;5281603;28;20033;-72
2023/03/20 10:02:46;;;;;;;10.35;3.50;;;;;;;;;;5280657;28;20020;-71
2023/03/20 10:05:21;;;;;;;10.50;3.30;;;;;;;;;;5281617;28;20031;-72
2023/03/20 10:08:00;;;;;;;12.07;4.03;;;;;;;;;;5281262;28;20052;-71
2023/03/20 10:10:41;;;;;;;6.70;2.80;;;;;;;;;;5280033;28;20013;-72
2023/03/20 10:13:31;;;;;;;12.13;2.95;;;;;;;;;;5281773;28;20025;-71
2023/03/20 10:16:09;;;;;;;11.48;3.55;;;;;;;;;;5281057;28;20025;-73
2023/03/20 10:18:46;;;;;;;9.88;2.75;;;;;;;;;;5280762;28;20070;-72
2023/03/20 10:21:23;;;;;;;8.90;2.38;;;;;;;;;;5281793;28;20024;-71
2023/03/20 10:23:57;;;;;;;9.80;2.65;;;;;;;;;;5280492;28;20141;-72
2023/03/20 10:26:30;;;;;;;11.75;2.63;;;;;;;;;;5281954;28;20313;-72
2023/03/20 10:29:10;;;;;;;9.05;2.15;;;;;;;;;;5285215;28;20387;-73
2023/03/20 10:31:49;;;;;;;10.02;3.30;;;;;;;;;;5284784;28;20024;-71
2023/03/20 10:34:39;;;;;;;7.45;2.25;;;;;;;;;;5285036;28;20043;-72
2023/03/20 10:37:19;;;;;;;8.57;2.55;;;;;;;;;;5284198;28;20028;-72
2023/03/20 10:39:50;;;;;;;10.02;2.65;;;;;;;;;;5284602;28;20112;-72
2023/03/20 10:42:27;;;;;;;9.90;2.88;;;;;;;;;;5284831;28;20100;-72
2023/03/20 10:45:11;;;;;;;10.73;2.45;;;;;;;;;;5284099;28;20255;-72
2023/03/20 10:47:43;;;;;;;8.90;3.00;;;;;;;;;;5284512;28;20090;-72
2023/03/20 10:50:16;;;;;;;8.82;3.13;;;;;;;;;;5284375;28;20020;-72
2023/03/20 10:52:48;;;;;;;10.10;2.55;;;;;;;;;;5284341;28;20020;-72
2023/03/20 10:55:26;;;;;;;11.00;3.33;;;;;;;;;;5284544;28;20032;-72
2023/03/20 10:58:16;;;;;;;7.35;2.72;;;;;;;;;;5283986;28;20078;-72
2023/03/20 11:00:47;;;;;;;9.05;3.00;;;;;;;;;;5284271;28;20021;-72
2023/03/20 11:03:23;;;;;;;11.48;3.83;;;;;;;;;;5284554;28;20031;-72
2023/03/20 11:05:58;;;;;;;7.88;3.00;;;;;;;;;;5283818;28;20017;-72
2023/03/20 11:08:33;;;;;;;10.63;3.13;;;;;;;;;;5283748;28;20070;-72
2023/03/20 11:11:04;;;;;;;8.40;2.78;;;;;;;;;;5284486;28;20016;-72
2023/03/20 11:13:37;;;;;;;8.88;2.50;;;;;;;;;;5283326;28;20050;-71
2023/03/20 11:16:20;;;;;;;10.88;2.97;;;;;;;;;;5284432;28;20020;-72
2023/03/20 11:18:52;;;;;;;9.85;2.90;;;;;;;;;;5283259;28;20379;-72
2023/03/20 11:21:25;;;;;;;12.43;3.60;;;;;;;;;;5283925;28;20024;-72
2023/03/20 11:23:56;;;;;;;11.30;3.53;;;;;;;;;;5284560;28;20096;-71
2023/03/20 11:26:37;;;;;;;8.43;1.95;;;;;;;;;;5282911;28;20099;-72
2023/03/20 11:29:25;;;;;;;11.38;3.10;;;;;;;;;;5284400;28;20021;-72
2023/03/20 11:32:03;;;;;;;9.88;2.13;;;;;;;;;;5284082;28;20387;-71
2023/03/20 11:34:35;;;;;;;9.05;2.58;;;;;;;;;;5282915;28;20356;-71
2023/03/20 11:37:19;;;;;;;9.98;2.75;;;;;;;;;;5283773;28;20017;-72
2023/03/20 11:39:58;;;;;;;12.90;2.80;;;;;;;;;;5282085;28;20040;-72
2023/03/20 11:42:29;;;;;;;10.68;3.00;;;;;;;;;;5283601;28;20096;-72
2023/03/20 11:45:16;;;;;;;8.88;3.13;;;;;;;;;;5283961;28;20028;-72
2023/03/20 11:47:51;;;;;;;9.38;2.88;;;;;;;;;;5282134;28;20029;-72
2023/03/20 11:50:30;;;;;;;7.00;2.22;;;;;;;;;;5283006;28;20701;-72
2023/03/20 11:53:02;;;;;;;13.32;3.15;;;;;;;;;;5283694;28;20066;-72
2023/03/20 11:55:34;;;;;;;10.07;2.50;;;;;;;;;;5282410;28;20381;-72
2023/03/20 11:58:10;;;;;;;13.85;3.35;;;;;;;;;;5283798;28;20015;-72
2023/03/20 12:00:41;;;;;;;8.95;2.30;;;;;;;;;;5282015;28;20035;-71
2023/03/20 12:03:35;;;;;;;9.50;2.92;;;;;;;;;;5283576;28;20020;-71
2023/03/20 12:06:13;;;;;;;7.97;2.38;;;;;;;;;;5283513;28;20526;-72
2023/03/20 12:08:46;;;;;;;12.70;2.45;;;;;;;;;;5281731;28;20394;-72
2023/03/20 12:11:31;;;;;;;9.25;2.60;;;;;;;;;;5282847;28;20039;-72
2023/03/20 12:14:05;;;;;;;12.02;3.50;;;;;;;;;;5283289;28;20020;-72
2023/03/20 12:16:36;;;;;;;10.80;2.92;;;;;;;;;;5281864;28;20021;-72
2023/03/20 12:19:17;;;;;;;7.05;2.95;;;;;;;;;;5282907;28;20078;-72
2023/03/20 12:21:58;;;;;;;11.05;3.20;;;;;;;;;;5281601;28;20098;-72
2023/03/20 12:24:44;;;;;;;8.80;3.25;;;;;;;;;;5282616;28;20025;-72
2023/03/20 12:27:36;;;;;;;11.05;3.10;;;;;;;;;;5282856;28;20544;-72
2023/03/20 12:30:14;;;;;;;9.38;2.47;;;;;;;;;;5281710;28;20067;-72
2023/03/20 12:33:05;;;;;;;10.30;3.72;;;;;;;;;;5282178;28;20032;-72
2023/03/20 12:35:40;;;;;;;9.63;2.92;;;;;;;;;;5281502;28;20032;-72
2023/03/20 12:38:20;;;;;;;11.70;2.60;;;;;;;;;;5282000;28;20017;-72
2023/03/20 12:40:53;;;;;;;11.70;4.03;;;;;;;;;;5282364;28;20059;-72
2023/03/20 12:43:26;;;;;;;12.80;3.20;;;;;;;;;;5281247;28;20028;-73
2023/03/20 12:46:00;;;;;;;10.25;2.78;;;;;;;;;;5282597;28;20480;-72
2023/03/20 12:48:36;;;;;;;10.32;3.10;;;;;;;;;;5281945;28;20013;-72
2023/03/20 12:51:10;;;;;;;8.68;2.83;;;;;;;;;;5281459;28;20135;-72
2023/03/20 12:53:55;;;;;;;8.45;2.25;;;;;;;;;;5282025;28;20169;-72
2023/03/20 12:56:32;;;;;;;10.35;2.90;;;;;;;;;;5281734;28;20023;-72
2023/03/20 12:59:03;;;;;;;7.75;2.15;;;;;;;;;;5281484;28;20067;-71
2023/03/20 13:01:46;;;;;;;8.50;3.05;;;;;;;;;;5281738;28;20048;-72
2023/03/20 13:04:17;;;;;;;11.32;2.55;;;;;;;;;;5281495;28;20371;-72
2023/03/20 13:06:53;;;;;;;8.98;2.17;;;;;;;;;;5281857;28;20036;-71
2023/03/20 13:09:25;;;;;;;9.10;2.42;;;;;;;;;;5281720;28;20255;-71
2023/03/20 13:12:07;;;;;;;7.32;2.20;;;;;;;;;;5281747;28;20542;-71
2023/03/20 13:15:01;;;;;;;7.82;2.47;;;;;;;;;;5281678;28;20017;-71
2023/03/20 13:17:36;;;;;;;10.02;2.40;;;;;;;;;;5275815;28;20032;-72
2023/03/20 13:20:22;;;;;;;6.38;1.85;;;;;;;;;;5280867;28;20516;-72
2023/03/20 13:22:57;;;;;;;11.10;2.33;;;;;;;;;;5281884;28;20402;-72
2023/03/20 13:25:45;;;;;;;11.02;2.97;;;;;;;;;;5280855;28;20070;-71
2023/03/20 13:28:35;;;;;;;10.02;2.38;;;;;;;;;;5281835;28;20025;-72
2023/03/20 13:31:09;;;;;;;9.02;2.83;;;;;;;;;;5282027;28;20028;-72
2023/03/20 13:33:45;;;;;;;13.52;2.22;;;;;;;;;;5280713;28;20483;-71
2023/03/20 13:36:20;;;;;;;9.90;2.42;;;;;;;;;;5281936;28;20025;-71
2023/03/20 13:39:01;;;;;;;8.90;1.92;;;;;;;;;;5281435;28;20032;-72
2023/03/20 13:41:34;;;;;;;11.50;1.90;;;;;;;;;;5280739;28;20020;-72
2023/03/20 13:44:08;;;;;;;9.93;1.98;;;;;;;;;;5281454;28;20082;-72
2023/03/20 13:47:18;;;;;;;9.57;2.15;;;;;;;;;;5280242;28;20020;-72
2023/03/20 13:50:12;;;;;;;11.90;1.75;;;;;;;;;;5237430;28;20084;-73
2023/03/20 13:52:53;;;;;;;12.63;2.30;;;;;;;;;;5209846;28;20065;-71
2023/03/20 13:55:27;;;;;;;12.05;1.98;;;;;;;;;;5270335;28;20487;-72
2023/03/20 13:57:58;;;;;;;7.93;1.95;;;;;;;;;;5281843;28;20491;-72
2023/03/20 14:00:35;;;;;;;8.18;1.77;;;;;;;;;;5280156;28;20347;-72
2023/03/20 14:03:18;;;;;;;9.85;1.83;;;;;;;;;;5285603;28;20099;-72
2023/03/20 14:05:49;;;;;;;9.80;1.73;;;;;;;;;;5285228;28;20095;-72
2023/03/20 14:08:26;;;;;;;11.75;2.25;;;;;;;;;;5284789;28;20092;-72
2023/03/20 14:11:12;;;;;;;13.60;2.03;;;;;;;;;;5285450;28;20037;-72
2023/03/20 14:13:46;;;;;;;12.27;1.67;;;;;;;;;;5285233;28;20096;-72
2023/03/20 14:16:21;;;;;;;11.35;1.88;;;;;;;;;;5284684;28;20044;-73
2023/03/20 14:19:05;;;;;;;8.75;1.95;;;;;;;;;;5285261;28;20020;-73
2023/03/20 14:21:37;;;;;;;10.20;2.10;;;;;;;;;;5284070;28;20042;-71
2023/03/20 14:24:12;;;;;;;10.15;2.10;;;;;;;;;;5285500;28;20016;-72
2023/03/20 14:26:46;;;;;;;10.75;1.65;;;;;;;;;;5284777;28;20032;-72
2023/03/20 14:29:17;;;;;;;9.15;2.10;;;;;;;;;;5284709;28;20089;-72
2023/03/20 14:31:50;;;;;;;9.13;2.28;;;;;;;;;;5284461;28;20024;-73
2023/03/20 14:34:23;;;;;;;9.13;1.95;;;;;;;;;;5284834;28;20308;-71
2023/03/20 14:36:59;;;;;;;10.48;1.75;;;;;;;;;;5284176;28;20028;-73
2023/03/20 14:39:49;;;;;;;14.80;2.17;;;;;;;;;;5284354;28;20028;-73
2023/03/20 14:42:30;;;;;;;7.60;1.75;;;;;;;;;;5284093;28;20032;-72
2023/03/20 14:45:05;;;;;;;5.90;2.17;;;;;;;;;;5285134;28;20048;-71
2023/03/20 14:47:57;;;;;;;10.25;2.25;;;;;;;;;;5284225;28;20471;-71
2023/03/20 14:50:29;;;;;;;10.75;2.15;;;;;;;;;;5282926;28;20033;-72
2023/03/20 14:53:17;;;;;;;8.85;1.77;;;;;;;;;;5285066;28;20475;-72
2023/03/20 14:55:54;;;;;;;5.13;1.42;;;;;;;;;;5284386;28;20020;-71
2023/03/20 14:58:44;;;;;;;10.98;2.00;;;;;;;;;;5283358;28;20055;-72
2023/03/20 15:01:26;;;;;;;8.95;2.00;;;;;;;;;;5284471;28;20033;-72
2023/03/20 15:04:05;;;;;;;8.82;1.58;;;;;;;;;;5284011;28;20043;-72
2023/03/20 15:06:44;;;;;;;9.73;2.38;;;;;;;;;;5284306;28;20099;-72
2023/03/20 15:09:16;;;;;;;8.32;1.65;;;;;;;;;;5285044;28;20486;-72
2023/03/20 15:11:47;;;;;;;10.85;1.63;;;;;;;;;;5282946;28;20013;-72
2023/03/20 15:14:21;;;;;;;9.85;2.42;;;;;;;;;;5284605;28;20023;-72
2023/03/20 15:16:57;;;;;;;6.15;1.48;;;;;;;;;;5284015;28;20027;-72